createdAt,value
2022-12-29T00:02:31.253Z,10.58
2022-12-29T00:07:32.747Z,10.42
2022-12-29T00:12:52.633Z,10.24
2022-12-29T00:17:53.947Z,10.13
2022-12-29T00:23:13.900Z,10.01
2022-12-29T00:28:34.048Z,9.94
2022-12-29T00:33:53.862Z,9.83
2022-12-29T00:39:22.113Z,9.81
2022-12-29T00:44:23.685Z,9.78
2022-12-29T00:49:31.204Z,9.85
2022-12-29T00:54:35.825Z,9.88
2022-12-29T00:59:37.957Z,9.94
2022-12-29T01:04:39.342Z,9.96
2022-12-29T01:09:59.401Z,9.96
2022-12-29T01:15:00.764Z,10.01
2022-12-29T01:20:02.290Z,10.21
2022-12-29T01:25:04.137Z,10.53
2022-12-29T01:30:05.797Z,10.36
2022-12-29T01:35:07.406Z,10.38
2022-12-29T01:40:09.086Z,10.68
2022-12-29T01:45:12.578Z,10.61
2022-12-29T01:50:26.175Z,10.74
2022-12-29T01:55:30.531Z,11.39
2022-12-29T02:00:31.880Z,11.34
2022-12-29T02:05:38.696Z,11.16
2022-12-29T02:10:41.463Z,11.23
2022-12-29T02:15:48.685Z,11.22
2022-12-29T02:20:56.327Z,10.87
2022-12-29T02:26:16.436Z,10.70
2022-12-29T02:31:38.660Z,10.81
2022-12-29T02:36:51.307Z,10.67
2022-12-29T02:42:00.462Z,10.57
2022-12-29T02:47:10.720Z,10.38
2022-12-29T02:52:16.958Z,10.33
2022-12-29T02:57:21.132Z,10.39
2022-12-29T03:02:22.621Z,10.42
2022-12-29T03:07:28.861Z,10.64
2022-12-29T03:12:59.752Z,10.66
2022-12-29T03:18:21.311Z,10.60
2022-12-29T03:23:24.620Z,10.74
2022-12-29T03:28:31.357Z,10.64
2022-12-29T03:33:33.262Z,10.48
2022-12-29T03:38:37.093Z,10.54
2022-12-29T03:43:38.674Z,10.42
2022-12-29T03:48:40.000Z,10.32
2022-12-29T03:53:41.498Z,10.42
2022-12-29T03:58:42.808Z,10.56
2022-12-29T04:03:44.189Z,10.53
2022-12-29T04:08:45.545Z,10.48
2022-12-29T04:13:46.879Z,10.45
2022-12-29T04:18:48.243Z,10.47
2022-12-29T04:23:49.568Z,10.76
2022-12-29T04:28:50.888Z,10.53
2022-12-29T04:33:52.229Z,10.73
2022-12-29T04:38:53.596Z,10.85
2022-12-29T04:43:54.967Z,10.56
2022-12-29T04:48:56.292Z,10.85
2022-12-29T04:53:57.634Z,10.96
2022-12-29T04:58:58.961Z,10.74
2022-12-29T05:04:00.421Z,10.37
2022-12-29T05:09:01.828Z,10.13
2022-12-29T05:14:03.268Z,9.91
2022-12-29T05:19:04.572Z,9.88
2022-12-29T05:24:06.031Z,9.89
2022-12-29T05:29:07.575Z,9.99
2022-12-29T05:34:11.478Z,10.01
2022-12-29T05:39:12.787Z,10.22
2022-12-29T05:44:14.274Z,10.21
2022-12-29T05:49:15.629Z,10.12
2022-12-29T05:54:17.107Z,10.01
2022-12-29T05:59:18.425Z,9.85
2022-12-29T06:04:19.770Z,9.87
2022-12-29T06:09:21.111Z,9.94
2022-12-29T06:14:22.458Z,9.99
2022-12-29T06:19:23.867Z,10.02
2022-12-29T06:24:25.183Z,9.98
2022-12-29T06:29:26.574Z,9.90
2022-12-29T06:34:27.915Z,9.87
2022-12-29T06:39:29.370Z,9.70
2022-12-29T06:44:30.674Z,9.55
2022-12-29T06:49:31.997Z,9.51
2022-12-29T06:54:33.363Z,9.49
2022-12-29T06:59:34.708Z,9.46
2022-12-29T07:04:36.022Z,9.39
2022-12-29T07:09:37.315Z,9.69
2022-12-29T07:14:42.923Z,9.53
2022-12-29T07:19:45.703Z,9.78
2022-12-29T07:24:47.023Z,9.56
2022-12-29T07:29:48.407Z,9.64
2022-12-29T07:34:49.724Z,9.51
2022-12-29T07:39:51.035Z,9.67
2022-12-29T07:44:52.433Z,9.65
2022-12-29T07:49:53.769Z,9.44
2022-12-29T07:54:55.162Z,9.60
2022-12-29T07:59:56.491Z,9.53
2022-12-29T08:04:57.833Z,9.51
2022-12-29T08:09:59.166Z,9.48
2022-12-29T08:15:00.518Z,9.50
2022-12-29T08:20:01.950Z,9.49
2022-12-29T08:25:03.356Z,9.47
2022-12-29T08:30:04.954Z,9.54
2022-12-29T08:35:08.293Z,9.69
2022-12-29T08:40:09.926Z,9.92
2022-12-29T08:45:11.343Z,10.11
2022-12-29T08:50:12.710Z,10.38
2022-12-29T08:55:14.041Z,10.90
2022-12-29T09:00:16.067Z,10.64
2022-12-29T09:05:17.573Z,10.68
2022-12-29T09:10:19.052Z,10.42
2022-12-29T09:15:20.510Z,10.49
2022-12-29T09:20:22.397Z,10.46
2022-12-29T09:25:25.297Z,10.51
2022-12-29T09:30:26.647Z,10.49
2022-12-29T09:35:28.026Z,10.61
2022-12-29T09:40:31.015Z,10.59
2022-12-29T09:45:44.629Z,10.73
2022-12-29T09:50:49.961Z,10.94
2022-12-29T09:55:52.958Z,11.18
2022-12-29T10:01:01.183Z,11.26
2022-12-29T10:06:11.645Z,11.40
2022-12-29T10:11:32.918Z,11.14
2022-12-29T10:16:34.243Z,11.42
2022-12-29T10:21:35.614Z,11.65
2022-12-29T10:26:39.794Z,11.89
2022-12-29T10:31:45.838Z,12.54
2022-12-29T10:36:49.782Z,12.42
2022-12-29T10:41:58.656Z,12.57
2022-12-29T10:47:03.397Z,13.64
2022-12-29T10:52:05.325Z,13.31
2022-12-29T10:57:11.954Z,12.80
2022-12-29T11:02:32.247Z,12.81
2022-12-29T11:07:33.793Z,12.55
2022-12-29T11:12:36.442Z,12.27
2022-12-29T11:17:48.055Z,12.31
2022-12-29T11:22:49.362Z,12.21
2022-12-29T11:27:59.632Z,12.20
2022-12-29T11:33:03.874Z,12.03
2022-12-29T11:38:06.169Z,11.83
2022-12-29T11:43:07.625Z,11.75
2022-12-29T11:48:11.048Z,11.91
2022-12-29T11:53:18.370Z,12.02
2022-12-29T11:58:19.881Z,11.80
2022-12-29T12:03:24.272Z,11.74
2022-12-29T12:08:34.603Z,11.86
2022-12-29T12:13:39.377Z,11.98
2022-12-29T12:18:56.215Z,11.90
2022-12-29T12:23:57.501Z,12.07
2022-12-29T12:29:04.946Z,11.96
2022-12-29T12:34:10.347Z,11.74
2022-12-29T12:39:20.866Z,11.71
2022-12-29T12:44:24.972Z,11.92
2022-12-29T12:49:26.340Z,11.85
2022-12-29T12:54:42.977Z,11.70
2022-12-29T12:59:53.167Z,11.67
2022-12-29T13:05:03.949Z,11.62
2022-12-29T13:10:17.556Z,11.65
2022-12-29T13:15:36.086Z,11.42
2022-12-29T13:20:40.508Z,11.55
2022-12-29T13:25:48.461Z,11.50
2022-12-29T13:30:55.718Z,11.40
2022-12-29T13:36:01.933Z,11.28
2022-12-29T13:41:06.645Z,11.43
2022-12-29T13:46:10.773Z,11.34
2022-12-29T13:51:12.579Z,11.44
2022-12-29T13:56:21.453Z,11.44
2022-12-29T14:01:32.755Z,11.32
2022-12-29T14:06:38.032Z,11.30
2022-12-29T14:11:40.758Z,12.21
2022-12-29T14:16:44.093Z,12.45
2022-12-29T14:21:56.232Z,12.21
2022-12-29T14:26:57.641Z,11.76
2022-12-29T14:31:59.010Z,11.43
2022-12-29T14:37:01.583Z,11.42
2022-12-29T14:42:06.077Z,11.04
2022-12-29T14:47:09.089Z,10.72
2022-12-29T14:52:13.785Z,10.48
2022-12-29T14:57:20.040Z,10.28
2022-12-29T15:02:23.129Z,10.13
2022-12-29T15:07:24.990Z,9.88
2022-12-29T15:12:58.667Z,9.98
2022-12-29T15:18:12.925Z,9.93
2022-12-29T15:23:17.260Z,9.89
2022-12-29T15:28:21.120Z,9.73
2022-12-29T15:33:23.922Z,9.58
2022-12-29T15:38:33.320Z,9.66
2022-12-29T15:43:47.459Z,9.67
2022-12-29T15:48:49.099Z,9.69
2022-12-29T15:53:52.062Z,9.75
2022-12-29T15:58:53.398Z,9.67
2022-12-29T16:03:55.112Z,9.61
2022-12-29T16:09:04.768Z,9.56
2022-12-29T16:14:13.412Z,9.43
2022-12-29T16:19:18.719Z,9.15
2022-12-29T16:24:21.883Z,8.76
2022-12-29T16:29:23.304Z,8.58
2022-12-29T16:34:26.297Z,8.32
2022-12-29T16:39:30.065Z,8.13
2022-12-29T16:44:32.062Z,8.07
2022-12-29T16:49:35.052Z,8.20
2022-12-29T16:54:37.483Z,8.30
2022-12-29T16:59:40.720Z,8.54
2022-12-29T17:04:42.087Z,8.53
2022-12-29T17:09:43.407Z,8.48
2022-12-29T17:14:58.683Z,8.29
2022-12-29T17:20:03.965Z,8.09
2022-12-29T17:25:05.449Z,7.85
2022-12-29T17:30:17.478Z,7.58
2022-12-29T17:35:19.825Z,7.34
2022-12-29T17:40:32.560Z,7.20
2022-12-29T17:45:33.939Z,6.93
2022-12-29T17:50:36.200Z,7.03
2022-12-29T17:55:38.729Z,7.39
2022-12-29T18:00:40.327Z,7.18
2022-12-29T18:05:41.889Z,6.77
2022-12-29T18:10:43.506Z,6.64
2022-12-29T18:15:44.853Z,7.14
2022-12-29T18:20:46.761Z,7.09
2022-12-29T18:25:51.973Z,7.03
2022-12-29T18:30:53.914Z,7.05
2022-12-29T18:35:59.462Z,7.00
2022-12-29T18:41:00.797Z,6.94
2022-12-29T18:46:02.155Z,6.74
2022-12-29T18:51:03.575Z,6.55
2022-12-29T18:56:05.028Z,7.01
2022-12-29T19:01:06.752Z,6.89
2022-12-29T19:06:08.120Z,6.84
2022-12-29T19:11:09.443Z,6.84
2022-12-29T19:16:18.629Z,6.72
2022-12-29T19:21:21.332Z,6.64
2022-12-29T19:26:30.308Z,6.66
2022-12-29T19:31:31.788Z,6.69
2022-12-29T19:36:33.264Z,6.79
2022-12-29T19:41:34.660Z,6.85
2022-12-29T19:46:36.149Z,7.09
2022-12-29T19:51:37.531Z,7.23
2022-12-29T19:56:42.859Z,7.36
2022-12-29T20:01:44.324Z,7.18
2022-12-29T20:06:45.858Z,6.94
2022-12-29T20:11:47.169Z,6.79
2022-12-29T20:17:09.557Z,6.68
2022-12-29T20:22:10.383Z,6.82
2022-12-29T20:27:12.554Z,6.91
2022-12-29T20:32:19.376Z,7.03
2022-12-29T20:37:21.675Z,7.41
2022-12-29T20:42:23.026Z,8.02
2022-12-29T20:47:24.344Z,7.98
2022-12-29T20:52:25.651Z,7.77
2022-12-29T20:57:27.024Z,7.64
2022-12-29T21:02:28.513Z,7.57
2022-12-29T21:07:30.001Z,7.39
2022-12-29T21:12:31.331Z,7.34
2022-12-29T21:17:32.704Z,7.44
2022-12-29T21:22:34.104Z,7.38
2022-12-29T21:27:35.480Z,7.28
2022-12-29T21:32:36.813Z,7.08
2022-12-29T21:37:38.219Z,6.92
2022-12-29T21:42:39.542Z,6.71
2022-12-29T21:47:59.693Z,6.58
2022-12-29T21:53:01.018Z,6.48
2022-12-29T21:58:21.077Z,6.53
2022-12-29T22:03:41.123Z,6.38
2022-12-29T22:09:00.986Z,6.42
2022-12-29T22:14:02.760Z,6.07
2022-12-29T22:19:04.226Z,5.82
2022-12-29T22:24:05.754Z,5.90
2022-12-29T22:29:07.077Z,5.76
2022-12-29T22:34:08.558Z,5.65
2022-12-29T22:39:10.564Z,5.42
2022-12-29T22:44:11.915Z,5.27
2022-12-29T22:49:13.320Z,4.92
2022-12-29T22:54:14.695Z,4.86
2022-12-29T22:59:16.681Z,4.56
2022-12-29T23:09:39.606Z,4.45
2022-12-29T23:14:40.994Z,4.24
2022-12-29T23:19:42.401Z,4.15
2022-12-29T23:24:43.737Z,3.97
2022-12-29T23:29:45.063Z,3.94
2022-12-29T23:34:46.401Z,3.86
2022-12-29T23:39:47.717Z,3.83
2022-12-29T23:44:49.110Z,3.93
2022-12-29T23:49:50.482Z,3.94
2022-12-29T23:54:51.876Z,3.89
2022-12-29T23:59:53.204Z,4.12
